Time;durP1;ratioP1;P1;durP2;ratioP2;P2;SDS_P1;SDS_P2;PMS_P1;PMS_P2;Temp;Humidity;BMP_temperature;BMP_pressure;BME280_temperature;BME280_humidity;BME280_pressure;Samples;Min_cycle;Max_cycle;Signal;HPM_P1;HPM_P2
2021/09/19 00:01:43;;;;;;;10.20;9.30;;;16.00;83.50;;;;;;5043179;28;20203;-86
2021/09/19 00:04:09;;;;;;;10.27;9.47;;;16.10;83.10;;;;;;5044090;28;20187;-87
2021/09/19 00:06:34;;;;;;;10.80;9.90;;;16.10;83.10;;;;;;5009150;28;20208;-87
2021/09/19 00:09:00;;;;;;;10.43;9.47;;;16.00;83.10;;;;;;5043187;28;20221;-87
2021/09/19 00:11:26;;;;;;;9.80;9.00;;;16.10;83.10;;;;;;5042021;28;20582;-84
2021/09/19 00:13:52;;;;;;;10.33;9.53;;;16.20;82.60;;;;;;5041303;28;20192;-87
2021/09/19 00:16:18;;;;;;;11.63;10.53;;;16.20;82.50;;;;;;5040019;28;20657;-86
2021/09/19 00:18:43;;;;;;;10.70;9.90;;;16.30;82.50;;;;;;5023678;28;20207;-87
2021/09/19 00:21:09;;;;;;;10.50;9.67;;;16.20;82.60;;;;;;5027562;28;20268;-86
2021/09/19 00:23:35;;;;;;;10.53;9.63;;;16.20;82.30;;;;;;5041415;28;20212;-86
2021/09/19 00:26:01;;;;;;;10.67;9.70;;;16.40;82.30;;;;;;5043632;28;20193;-87
2021/09/19 00:28:27;;;;;;;11.63;10.53;;;16.40;81.90;;;;;;5043518;28;20221;-86
2021/09/19 00:30:53;;;;;;;10.93;10.03;;;16.40;81.90;;;;;;5036059;28;20177;-86
2021/09/19 00:33:18;;;;;;;10.13;9.33;;;16.30;82.10;;;;;;5029660;28;20196;-86
2021/09/19 00:35:44;;;;;;;10.80;9.80;;;16.20;82.80;;;;;;5025805;28;20650;-86
2021/09/19 00:38:10;;;;;;;12.47;10.53;;;16.10;83.20;;;;;;5041246;28;20208;-87
2021/09/19 00:40:36;;;;;;;11.07;10.20;;;15.90;83.90;;;;;;5041703;28;20211;-87
2021/09/19 00:43:01;;;;;;;11.37;10.43;;;15.70;85.00;;;;;;5022095;28;20209;-87
2021/09/19 00:45:28;;;;;;;11.13;10.03;;;15.70;85.50;;;;;;5039806;28;20288;-87
2021/09/19 00:47:53;;;;;;;12.30;11.20;;;15.50;86.10;;;;;;5040097;28;20235;-87
2021/09/19 00:50:23;;;;;;;12.53;11.30;;;15.40;86.90;;;;;;5044349;28;20187;-85
2021/09/19 00:52:50;;;;;;;11.10;10.13;;;15.30;87.20;;;;;;5043680;28;20189;-86
2021/09/19 00:55:16;;;;;;;11.57;10.60;;;15.30;87.30;;;;;;5037680;28;20195;-87
2021/09/19 00:57:45;;;;;;;11.13;10.13;;;15.30;87.30;;;;;;5029160;28;20204;-86
2021/09/19 01:00:14;;;;;;;11.97;10.87;;;15.30;87.40;;;;;;5043137;28;20189;-86
2021/09/19 01:02:41;;;;;;;11.13;10.23;;;15.30;87.60;;;;;;5042345;28;20225;-87
2021/09/19 01:05:08;;;;;;;11.20;10.40;;;15.30;87.40;;;;;;5040235;28;20191;-86
2021/09/19 01:07:34;;;;;;;11.07;10.00;;;15.40;86.90;;;;;;5040605;28;20286;-86
2021/09/19 01:10:00;;;;;;;11.77;10.70;;;15.40;86.60;;;;;;5042153;28;20195;-87
2021/09/19 01:12:26;;;;;;;11.13;10.13;;;15.40;86.70;;;;;;5040212;28;20185;-87
2021/09/19 01:14:52;;;;;;;10.60;9.70;;;15.40;86.70;;;;;;5025689;28;20192;-87
2021/09/19 01:17:19;;;;;;;11.30;10.30;;;15.40;86.50;;;;;;5041530;28;20197;-87
2021/09/19 01:19:47;;;;;;;10.60;9.70;;;15.40;86.90;;;;;;5021489;28;20644;-85
2021/09/19 01:22:13;;;;;;;10.70;9.90;;;15.50;86.50;;;;;;5034717;28;20269;-87
2021/09/19 01:24:39;;;;;;;10.30;9.30;;;15.50;86.40;;;;;;5042767;28;20196;-87
2021/09/19 01:27:05;;;;;;;10.50;9.60;;;15.70;85.30;;;;;;5041698;28;20225;-86
2021/09/19 01:29:32;;;;;;;11.20;10.30;;;15.70;85.30;;;;;;5039170;28;20222;-88
2021/09/19 01:31:58;;;;;;;10.37;9.53;;;15.70;84.90;;;;;;5039363;28;20192;-87
2021/09/19 01:34:25;;;;;;;10.70;9.70;;;15.70;85.10;;;;;;5031939;28;20664;-86
2021/09/19 01:36:51;;;;;;;10.73;9.83;;;15.60;85.50;;;;;;5030088;28;20184;-86
2021/09/19 01:39:17;;;;;;;9.90;9.10;;;15.50;86.00;;;;;;5042889;28;20772;-86
2021/09/19 01:41:43;;;;;;;10.67;9.77;;;15.40;86.20;;;;;;5042529;28;20346;-86
2021/09/19 01:44:09;;;;;;;10.20;9.30;;;15.40;85.90;;;;;;5041942;28;20225;-87
2021/09/19 01:46:36;;;;;;;11.10;9.07;;;15.30;86.40;;;;;;5051855;28;20192;-86
2021/09/19 01:49:05;;;;;;;10.83;9.83;;;15.30;86.20;;;;;;5042907;28;20213;-87
2021/09/19 01:51:31;;;;;;;9.87;9.03;;;15.30;86.70;;;;;;5040865;28;20179;-86
2021/09/19 01:53:57;;;;;;;10.07;9.17;;;15.30;86.40;;;;;;5022732;28;20189;-86
2021/09/19 01:56:24;;;;;;;9.43;8.63;;;15.30;86.20;;;;;;5038607;28;20252;-87
2021/09/19 01:58:52;;;;;;;9.63;8.83;;;15.40;85.80;;;;;;5021836;28;20219;-87
2021/09/19 02:01:22;;;;;;;9.27;8.53;;;15.30;85.90;;;;;;5044275;28;20191;-86
2021/09/19 02:03:53;;;;;;;9.13;8.43;;;15.40;85.70;;;;;;5045009;28;20264;-86
2021/09/19 02:06:19;;;;;;;8.80;7.90;;;15.40;85.30;;;;;;5044302;28;20680;-87
2021/09/19 02:08:46;;;;;;;9.40;8.50;;;15.50;85.40;;;;;;5046776;28;20240;-87
2021/09/19 02:11:14;;;;;;;8.60;7.83;;;15.50;85.00;;;;;;5025041;28;20223;-87
2021/09/19 02:13:41;;;;;;;8.33;7.57;;;15.50;85.00;;;;;;5045055;28;20179;-86
2021/09/19 02:16:07;;;;;;;8.10;7.47;;;15.50;84.90;;;;;;5044750;28;20191;-87
2021/09/19 02:18:34;;;;;;;7.90;7.20;;;15.40;84.90;;;;;;5043717;28;20216;-85
2021/09/19 02:21:02;;;;;;;7.73;7.07;;;15.30;85.30;;;;;;5044658;28;20258;-87
2021/09/19 02:23:28;;;;;;;7.93;7.33;;;15.20;85.80;;;;;;5043824;28;20264;-86
2021/09/19 02:25:54;;;;;;;7.03;6.43;;;15.20;85.60;;;;;;5044515;28;20395;-87
2021/09/19 02:28:20;;;;;;;7.23;6.73;;;15.10;86.30;;;;;;5029784;28;20216;-86
2021/09/19 02:30:47;;;;;;;7.00;6.40;;;15.20;85.60;;;;;;5045563;28;20198;-86
2021/09/19 02:33:12;;;;;;;7.80;7.10;;;15.20;85.70;;;;;;5041218;28;20241;-87
2021/09/19 02:35:39;;;;;;;6.60;6.03;;;15.10;85.90;;;;;;5040840;28;20207;-86
2021/09/19 02:38:05;;;;;;;6.90;6.30;;;15.00;86.10;;;;;;5044967;28;20266;-86
2021/09/19 02:40:31;;;;;;;6.53;6.03;;;15.00;86.30;;;;;;5043803;28;20279;-87
2021/09/19 02:42:57;;;;;;;7.10;6.50;;;14.90;86.40;;;;;;5043879;28;20186;-87
2021/09/19 02:45:24;;;;;;;6.00;5.57;;;14.80;86.60;;;;;;5044855;28;20189;-86
2021/09/19 02:47:49;;;;;;;6.93;6.23;;;14.90;86.10;;;;;;5038508;28;20218;-86
2021/09/19 02:50:19;;;;;;;6.47;5.90;;;14.90;85.90;;;;;;5043000;28;20188;-85
2021/09/19 02:52:44;;;;;;;6.23;5.73;;;15.00;85.90;;;;;;5024813;28;20666;-86
2021/09/19 02:55:12;;;;;;;6.80;6.20;;;14.90;85.90;;;;;;5043703;28;20187;-87
2021/09/19 02:57:38;;;;;;;7.10;6.40;;;15.00;85.60;;;;;;5033592;28;20186;-87
2021/09/19 03:00:07;;;;;;;6.03;5.53;;;15.00;85.20;;;;;;5028941;28;20192;-86
2021/09/19 03:02:33;;;;;;;6.30;5.70;;;14.90;85.40;;;;;;5046377;28;20189;-86
2021/09/19 03:04:58;;;;;;;6.27;5.67;;;14.90;85.40;;;;;;5021365;28;20210;-87
2021/09/19 03:07:24;;;;;;;5.80;5.40;;;15.00;85.20;;;;;;5045889;28;20320;-87
2021/09/19 03:09:50;;;;;;;6.67;5.50;;;15.00;84.70;;;;;;5029154;28;20211;-87
2021/09/19 03:12:16;;;;;;;5.53;5.13;;;14.90;85.20;;;;;;5042822;28;20250;-86
2021/09/19 03:14:41;;;;;;;6.30;5.70;;;14.90;85.30;;;;;;5027760;28;20193;-86
2021/09/19 03:17:07;;;;;;;5.90;5.33;;;14.80;86.20;;;;;;5028609;28;20197;-87
2021/09/19 03:19:33;;;;;;;5.77;5.37;;;14.80;85.40;;;;;;5026298;28;20230;-87
2021/09/19 03:21:59;;;;;;;5.50;5.10;;;14.80;85.50;;;;;;5026740;28;20197;-86
2021/09/19 03:24:25;;;;;;;5.70;5.20;;;14.60;86.30;;;;;;5041685;28;20181;-87
2021/09/19 03:26:51;;;;;;;5.93;5.30;;;14.60;86.60;;;;;;5040483;28;20272;-87
2021/09/19 03:29:16;;;;;;;5.57;5.17;;;14.60;86.40;;;;;;5045913;28;20219;-87
2021/09/19 03:31:42;;;;;;;5.37;4.93;;;14.70;86.30;;;;;;5028266;28;20201;-86
2021/09/19 03:34:08;;;;;;;5.30;4.80;;;14.60;86.10;;;;;;5046366;28;20216;-86
2021/09/19 03:36:34;;;;;;;6.20;4.80;;;14.50;86.10;;;;;;5044014;28;20204;-87
2021/09/19 03:38:59;;;;;;;5.23;4.73;;;14.40;86.40;;;;;;5044154;28;20220;-86
2021/09/19 03:41:25;;;;;;;4.90;4.50;;;14.40;86.40;;;;;;5046554;28;20194;-87
2021/09/19 03:43:53;;;;;;;5.03;4.60;;;14.40;86.60;;;;;;5028919;28;20220;-86
2021/09/19 03:46:18;;;;;;;5.40;4.90;;;14.40;86.20;;;;;;5046851;28;20214;-85
2021/09/19 03:48:44;;;;;;;5.60;4.63;;;14.40;86.40;;;;;;5066004;28;20220;-86
2021/09/19 03:51:10;;;;;;;5.60;5.17;;;14.40;86.70;;;;;;5053688;28;20194;-87
2021/09/19 03:53:36;;;;;;;4.57;4.27;;;14.40;86.40;;;;;;5027987;28;20284;-88
2021/09/19 03:56:02;;;;;;;4.63;4.33;;;14.30;86.90;;;;;;5043402;28;20260;-85
2021/09/19 03:58:27;;;;;;;5.00;4.60;;;14.30;86.20;;;;;;5045130;28;20202;-85
2021/09/19 04:00:53;;;;;;;5.20;4.70;;;14.20;86.70;;;;;;5043438;28;20264;-84
2021/09/19 04:03:19;;;;;;;5.17;4.77;;;14.20;86.90;;;;;;5026060;28;20205;-86
2021/09/19 04:05:45;;;;;;;5.47;4.10;;;14.10;87.30;;;;;;5026724;28;20204;-88
2021/09/19 04:08:10;;;;;;;4.60;4.13;;;14.10;87.00;;;;;;5027891;28;20221;-86
2021/09/19 04:10:36;;;;;;;5.00;4.50;;;14.10;87.20;;;;;;5024686;28;20201;-85
2021/09/19 04:13:02;;;;;;;6.10;4.50;;;14.20;86.90;;;;;;5046778;28;20181;-85
2021/09/19 04:15:28;;;;;;;4.93;4.20;;;14.20;86.60;;;;;;5043045;28;20272;-85
2021/09/19 04:17:53;;;;;;;4.83;4.00;;;14.20;86.10;;;;;;5042708;28;20216;-85
2021/09/19 04:20:19;;;;;;;4.50;4.10;;;14.10;86.90;;;;;;5046006;28;20197;-86
2021/09/19 04:22:45;;;;;;;4.50;4.10;;;14.10;86.60;;;;;;5041446;28;20216;-84
2021/09/19 04:25:11;;;;;;;7.30;4.27;;;14.00;87.00;;;;;;5044068;28;20260;-87
2021/09/19 04:27:38;;;;;;;5.20;4.80;;;14.00;87.10;;;;;;5044648;28;20235;-87
2021/09/19 04:30:05;;;;;;;4.37;4.07;;;13.90;87.50;;;;;;5045846;28;20191;-86
2021/09/19 04:32:31;;;;;;;4.37;3.87;;;13.80;87.80;;;;;;5025849;28;20727;-86
2021/09/19 04:34:57;;;;;;;5.23;4.20;;;13.70;87.80;;;;;;5040069;28;20263;-86
2021/09/19 04:37:23;;;;;;;4.23;3.80;;;13.70;88.20;;;;;;5026721;28;20213;-87
2021/09/19 04:39:48;;;;;;;5.00;4.60;;;13.70;88.00;;;;;;5028588;28;20220;-85
2021/09/19 04:42:14;;;;;;;4.27;3.87;;;13.90;87.50;;;;;;5039115;28;20211;-88
2021/09/19 04:44:41;;;;;;;4.10;3.80;;;13.80;87.10;;;;;;5027046;28;20192;-87
2021/09/19 04:47:08;;;;;;;4.00;3.67;;;13.80;87.00;;;;;;5023686;28;20201;-85
2021/09/19 04:49:34;;;;;;;4.40;4.10;;;13.80;87.00;;;;;;5038561;28;20189;-86
2021/09/19 04:52:00;;;;;;;4.10;3.80;;;13.80;87.20;;;;;;5060893;28;20176;-85
2021/09/19 04:54:26;;;;;;;4.80;4.27;;;13.70;87.50;;;;;;5043190;28;20247;-85
2021/09/19 04:56:53;;;;;;;4.03;3.70;;;13.70;87.60;;;;;;5044270;28;20206;-85
2021/09/19 04:59:19;;;;;;;3.70;3.40;;;13.60;87.70;;;;;;5048372;28;20196;-84
2021/09/19 05:01:45;;;;;;;5.80;3.77;;;13.60;88.10;;;;;;5045932;28;20200;-86
2021/09/19 05:04:11;;;;;;;4.27;3.87;;;13.60;87.70;;;;;;5058991;28;20203;-84
2021/09/19 05:06:37;;;;;;;5.20;3.83;;;13.70;87.50;;;;;;5053132;28;20203;-84
2021/09/19 05:09:03;;;;;;;3.87;3.50;;;13.70;87.20;;;;;;5043356;28;20235;-86
2021/09/19 05:11:28;;;;;;;3.83;3.60;;;13.70;86.80;;;;;;5026327;28;20211;-86
2021/09/19 05:13:54;;;;;;;3.90;3.60;;;13.70;86.80;;;;;;5042357;28;20176;-86
2021/09/19 05:16:20;;;;;;;4.20;3.90;;;13.60;87.10;;;;;;5048561;28;20196;-85
2021/09/19 05:18:46;;;;;;;4.17;3.70;;;13.70;87.30;;;;;;5032336;28;20244;-86
2021/09/19 05:21:12;;;;;;;3.80;3.50;;;13.80;86.40;;;;;;5045655;28;20669;-86
2021/09/19 05:23:38;;;;;;;3.97;3.67;;;13.70;86.90;;;;;;5043081;28;20200;-86
2021/09/19 05:26:04;;;;;;;4.00;3.60;;;13.80;86.20;;;;;;5044710;28;20272;-86
2021/09/19 05:28:29;;;;;;;4.10;3.80;;;13.80;86.20;;;;;;5043256;28;20323;-86
2021/09/19 05:30:55;;;;;;;3.70;3.40;;;13.80;86.20;;;;;;5046841;28;20254;-86
2021/09/19 05:33:21;;;;;;;4.07;3.77;;;13.90;86.00;;;;;;5024914;28;20225;-87
2021/09/19 05:35:47;;;;;;;3.40;3.10;;;13.80;86.40;;;;;;5031111;28;20184;-87
2021/09/19 05:38:13;;;;;;;4.57;4.10;;;13.80;86.40;;;;;;5043228;28;20224;-88
2021/09/19 05:40:41;;;;;;;3.40;3.20;;;13.80;86.20;;;;;;5028450;28;20227;-85
2021/09/19 05:43:06;;;;;;;4.03;3.73;;;13.70;86.80;;;;;;5050307;28;20184;-84
2021/09/19 05:45:32;;;;;;;4.33;4.03;;;13.60;87.20;;;;;;5042682;28;20269;-85
2021/09/19 05:47:58;;;;;;;4.10;3.80;;;13.60;87.10;;;;;;5045955;28;20734;-85
2021/09/19 05:50:25;;;;;;;4.37;4.07;;;13.50;87.40;;;;;;5047112;28;20864;-86
2021/09/19 05:52:51;;;;;;;4.50;3.33;;;13.60;87.30;;;;;;5042726;28;20259;-83
2021/09/19 05:55:18;;;;;;;4.10;3.80;;;13.60;87.40;;;;;;5029825;28;20227;-85
2021/09/19 05:57:44;;;;;;;4.70;4.27;;;13.50;87.60;;;;;;5025841;28;20716;-84
2021/09/19 06:00:11;;;;;;;4.00;3.70;;;13.50;87.70;;;;;;5029166;28;20197;-84
2021/09/19 06:02:37;;;;;;;4.10;3.73;;;13.50;87.50;;;;;;5031690;28;20196;-85
2021/09/19 06:05:05;;;;;;;4.90;4.40;;;13.50;88.00;;;;;;5046351;28;20211;-84
2021/09/19 06:07:31;;;;;;;4.73;3.80;;;13.40;88.10;;;;;;5028530;28;20227;-84
2021/09/19 06:09:57;;;;;;;4.70;4.23;;;13.40;88.00;;;;;;5044571;28;20218;-85
2021/09/19 06:12:22;;;;;;;4.47;4.17;;;13.40;88.30;;;;;;5043738;28;20290;-86
2021/09/19 06:14:49;;;;;;;4.13;3.80;;;13.50;88.10;;;;;;5043957;28;20188;-87
2021/09/19 06:17:16;;;;;;;3.80;3.50;;;13.50;88.00;;;;;;5045003;28;20335;-86
2021/09/19 06:19:42;;;;;;;4.47;4.07;;;13.50;88.30;;;;;;5037176;28;20216;-86
2021/09/19 06:22:08;;;;;;;4.07;3.77;;;13.60;87.60;;;;;;5042866;28;20183;-86
2021/09/19 06:24:34;;;;;;;4.07;3.67;;;13.60;87.90;;;;;;5042031;28;20285;-85
2021/09/19 06:27:01;;;;;;;4.37;3.97;;;13.60;88.80;;;;;;5042730;28;20203;-86
2021/09/19 06:29:27;;;;;;;4.37;3.87;;;13.60;87.90;;;;;;5042278;28;20255;-86
2021/09/19 06:31:53;;;;;;;3.77;3.47;;;13.60;87.90;;;;;;5042513;28;20685;-85
2021/09/19 06:34:19;;;;;;;3.90;3.60;;;13.60;87.80;;;;;;5041923;28;20204;-86
2021/09/19 06:36:45;;;;;;;3.80;3.50;;;13.70;87.60;;;;;;5035612;28;20218;-85
2021/09/19 06:39:11;;;;;;;4.47;3.80;;;13.80;87.40;;;;;;5025361;28;20818;-86
2021/09/19 06:41:37;;;;;;;4.23;3.83;;;13.90;87.20;;;;;;5022364;28;20235;-86
2021/09/19 06:44:03;;;;;;;4.87;4.37;;;13.80;87.20;;;;;;5039760;28;20622;-86
2021/09/19 06:46:32;;;;;;;6.77;3.80;;;13.90;87.20;;;;;;5044985;28;20196;-86
2021/09/19 06:48:59;;;;;;;4.57;4.10;;;14.00;86.60;;;;;;5041231;28;20228;-86
2021/09/19 06:51:25;;;;;;;4.23;3.93;;;14.10;86.30;;;;;;5041720;28;20220;-87
2021/09/19 06:53:52;;;;;;;5.03;4.07;;;14.20;85.80;;;;;;5044436;28;20416;-87
2021/09/19 06:56:19;;;;;;;4.40;4.00;;;14.20;85.80;;;;;;5026186;28;20185;-87
2021/09/19 06:58:44;;;;;;;4.20;3.90;;;14.30;85.50;;;;;;5041904;28;20347;-87
2021/09/19 07:01:10;;;;;;;4.93;4.00;;;14.40;85.40;;;;;;5034268;28;20232;-86
2021/09/19 07:03:36;;;;;;;4.17;3.47;;;14.40;85.20;;;;;;5043126;28;20190;-87
2021/09/19 07:06:02;;;;;;;4.10;3.70;;;14.40;85.10;;;;;;5021784;28;20189;-87
2021/09/19 07:08:28;;;;;;;3.73;3.43;;;14.50;84.90;;;;;;5050370;28;20531;-86
2021/09/19 07:10:55;;;;;;;4.33;3.83;;;14.50;84.80;;;;;;5041686;28;20200;-87
2021/09/19 07:13:21;;;;;;;4.97;4.47;;;14.50;84.80;;;;;;5024092;28;20197;-87
2021/09/19 07:15:52;;;;;;;4.77;4.27;;;14.60;84.70;;;;;;5038586;28;20212;-87
2021/09/19 07:18:22;;;;;;;4.23;3.93;;;14.60;84.50;;;;;;5014543;28;20217;-86
2021/09/19 07:20:48;;;;;;;4.10;3.80;;;14.70;83.90;;;;;;5037536;28;20195;-87
2021/09/19 07:23:14;;;;;;;4.17;3.83;;;14.80;84.10;;;;;;5041790;28;20224;-87
2021/09/19 07:25:41;;;;;;;4.17;3.83;;;14.90;84.00;;;;;;5025518;28;20201;-86
2021/09/19 07:28:07;;;;;;;4.90;4.07;;;14.90;83.40;;;;;;5042005;28;20221;-87
2021/09/19 07:30:34;;;;;;;4.43;4.00;;;15.00;83.10;;;;;;5005767;28;20198;-87
2021/09/19 07:33:01;;;;;;;4.67;4.27;;;15.10;83.30;;;;;;5054867;28;20194;-88
2021/09/19 07:35:27;;;;;;;3.90;3.60;;;15.30;82.80;;;;;;5044840;28;20208;-88
2021/09/19 07:37:53;;;;;;;3.73;3.43;;;15.40;82.10;;;;;;5023562;28;20226;-87
2021/09/19 07:40:19;;;;;;;4.40;4.00;;;15.60;81.50;;;;;;5042853;28;20202;-87
2021/09/19 07:42:45;;;;;;;4.13;3.83;;;15.70;81.10;;;;;;5026475;28;20204;-87
2021/09/19 07:45:12;;;;;;;4.23;3.93;;;15.80;80.10;;;;;;5040945;28;20208;-88
2021/09/19 07:47:38;;;;;;;4.53;4.07;;;15.80;79.10;;;;;;5041989;28;20225;-87
2021/09/19 07:50:05;;;;;;;3.50;3.20;;;15.80;79.70;;;;;;5033141;28;20195;-86
2021/09/19 07:52:31;;;;;;;4.40;4.00;;;15.80;79.50;;;;;;5043876;28;20207;-86
2021/09/19 07:54:57;;;;;;;4.07;3.60;;;15.90;79.30;;;;;;5043159;28;20272;-86
2021/09/19 07:57:24;;;;;;;4.20;3.80;;;16.00;79.80;;;;;;5044495;28;20633;-86
2021/09/19 07:59:52;;;;;;;4.40;4.00;;;16.20;78.10;;;;;;5042649;28;20219;-87
2021/09/19 08:02:17;;;;;;;4.20;3.90;;;16.30;78.30;;;;;;5041280;28;20199;-86
2021/09/19 08:04:43;;;;;;;13.47;4.43;;;16.40;76.50;;;;;;5033356;28;20579;-87
2021/09/19 08:07:09;;;;;;;4.80;4.40;;;16.50;76.70;;;;;;5028404;28;20791;-86
2021/09/19 08:09:36;;;;;;;5.17;4.53;;;16.50;76.60;;;;;;5022588;28;20225;-87
2021/09/19 08:12:02;;;;;;;4.80;4.50;;;16.50;76.00;;;;;;5043102;28;20183;-86
2021/09/19 08:14:28;;;;;;;4.77;4.37;;;16.60;76.80;;;;;;5032486;28;20235;-87
2021/09/19 08:16:54;;;;;;;4.37;4.07;;;16.70;75.80;;;;;;5042412;28;20181;-86
2021/09/19 08:19:21;;;;;;;4.60;4.20;;;16.70;76.10;;;;;;5039373;28;20216;-86
2021/09/19 08:21:47;;;;;;;4.07;3.80;;;16.80;76.30;;;;;;5050208;28;20216;-87
2021/09/19 08:24:14;;;;;;;4.17;3.87;;;16.80;76.10;;;;;;5047211;28;20183;-87
2021/09/19 08:26:40;;;;;;;3.70;3.40;;;16.80;76.60;;;;;;5039726;28;20221;-87
2021/09/19 08:29:08;;;;;;;4.17;3.70;;;16.80;76.20;;;;;;5042971;28;20241;-88
2021/09/19 08:31:34;;;;;;;4.10;3.70;;;16.90;76.40;;;;;;5042142;28;20553;-87
2021/09/19 08:34:00;;;;;;;4.27;3.87;;;17.00;75.60;;;;;;5023473;28;20207;-88
2021/09/19 08:36:27;;;;;;;4.37;3.97;;;17.20;75.60;;;;;;5022121;28;20191;-87
2021/09/19 08:38:54;;;;;;;4.10;3.80;;;17.20;75.00;;;;;;5040845;28;20216;-88
2021/09/19 08:41:20;;;;;;;4.33;4.03;;;17.10;75.40;;;;;;5043277;28;20202;-88
2021/09/19 08:43:48;;;;;;;4.10;3.77;;;17.30;75.10;;;;;;5040808;28;20193;-87
2021/09/19 08:46:18;;;;;;;4.00;3.70;;;17.30;74.70;;;;;;5040341;28;20625;-86
2021/09/19 08:48:45;;;;;;;4.50;4.00;;;17.50;75.10;;;;;;5038697;28;20217;-88
2021/09/19 08:51:11;;;;;;;4.30;4.00;;;17.50;74.00;;;;;;5031274;28;20195;-88
2021/09/19 08:53:37;;;;;;;4.20;3.80;;;17.70;73.60;;;;;;5055539;28;20635;-87
2021/09/19 08:56:04;;;;;;;3.87;3.57;;;17.80;72.70;;;;;;5043356;28;20197;-88
2021/09/19 08:58:31;;;;;;;4.17;3.87;;;17.90;72.30;;;;;;5037643;28;20287;-88
2021/09/19 09:00:59;;;;;;;5.00;3.83;;;17.90;72.30;;;;;;5040473;28;20191;-87
2021/09/19 09:03:28;;;;;;;4.03;3.63;;;18.00;71.90;;;;;;5039685;28;20251;-88
2021/09/19 09:06:03;;;;;;;4.03;3.73;;;18.00;72.60;;;;;;5038557;28;20259;-88
2021/09/19 09:08:31;;;;;;;3.80;3.33;;;17.90;72.80;;;;;;5025616;28;20228;-87
2021/09/19 09:10:59;;;;;;;4.37;4.00;;;18.00;73.50;;;;;;5040868;28;20224;-87
2021/09/19 09:13:28;;;;;;;4.53;4.13;;;18.30;71.80;;;;;;5037428;28;20211;-88
2021/09/19 09:16:03;;;;;;;6.63;4.03;;;18.20;71.10;;;;;;5041951;28;20545;-87
2021/09/19 09:18:35;;;;;;;4.20;3.90;;;18.30;71.40;;;;;;5024187;28;20298;-85
2021/09/19 09:21:04;;;;;;;4.40;4.10;;;18.50;71.40;;;;;;5041696;28;20253;-88
2021/09/19 09:23:40;;;;;;;4.50;4.20;;;18.60;70.00;;;;;;5042223;28;20200;-88
2021/09/19 09:26:33;;;;;;;4.50;4.18;;;18.70;70.80;;;;;;5034033;28;20226;-88
2021/09/19 09:29:03;;;;;;;4.57;4.15;;;18.90;69.80;;;;;;5031455;28;20242;-88
2021/09/19 09:31:39;;;;;;;4.35;4.05;;;19.10;68.70;;;;;;5037757;28;20211;-88
2021/09/19 09:34:26;;;;;;;3.83;3.53;;;19.20;68.20;;;;;;5040634;28;20212;-87
2021/09/19 09:36:54;;;;;;;4.53;4.13;;;19.30;67.90;;;;;;5041529;28;20211;-88
2021/09/19 09:39:23;;;;;;;4.38;4.07;;;19.50;67.30;;;;;;5040567;28;20211;-88
2021/09/19 09:41:49;;;;;;;4.40;4.00;;;19.70;67.10;;;;;;5039355;28;20564;-87
2021/09/19 09:44:25;;;;;;;4.18;3.80;;;19.80;65.60;;;;;;5043949;28;20254;-88
2021/09/19 09:46:51;;;;;;;5.22;4.63;;;20.00;66.50;;;;;;5005281;28;20201;-87
2021/09/19 09:49:35;;;;;;;4.85;4.38;;;20.20;64.50;;;;;;5040955;28;20223;-88
2021/09/19 09:52:09;;;;;;;4.60;4.20;;;20.20;63.50;;;;;;5040448;28;20191;-88
2021/09/19 09:54:53;;;;;;;4.82;4.53;;;20.20;63.60;;;;;;5020881;28;20192;-88
2021/09/19 09:57:37;;;;;;;4.60;4.30;;;20.20;65.00;;;;;;5038327;28;20971;-87
2021/09/19 10:00:14;;;;;;;4.10;3.80;;;20.30;63.50;;;;;;5035141;28;20196;-88
2021/09/19 10:02:44;;;;;;;4.85;4.45;;;20.50;63.50;;;;;;5039788;28;20248;-88
2021/09/19 10:05:12;;;;;;;4.47;4.07;;;20.70;62.80;;;;;;5035244;28;20196;-87
2021/09/19 10:07:39;;;;;;;5.00;4.10;;;20.80;62.50;;;;;;5019504;28;20215;-87
2021/09/19 10:10:07;;;;;;;5.18;4.63;;;21.20;62.10;;;;;;5058446;28;20202;-87
2021/09/19 10:12:33;;;;;;;5.03;4.60;;;21.20;61.50;;;;;;5054586;28;20200;-87
2021/09/19 10:14:59;;;;;;;4.43;4.13;;;21.10;61.30;;;;;;5029875;28;20248;-87
2021/09/19 10:17:30;;;;;;;5.22;4.72;;;21.10;61.20;;;;;;5040449;28;20224;-87
2021/09/19 10:19:57;;;;;;;4.70;4.28;;;21.30;60.60;;;;;;5028366;28;20229;-87
2021/09/19 10:22:34;;;;;;;5.45;4.68;;;21.30;60.60;;;;;;5039479;28;20203;-88
2021/09/19 10:25:00;;;;;;;4.90;4.38;;;21.60;59.80;;;;;;5041308;28;20205;-87
2021/09/19 10:27:32;;;;;;;4.78;4.38;;;21.70;59.60;;;;;;5041045;28;20217;-86
2021/09/19 10:30:03;;;;;;;5.00;4.70;;;21.90;59.70;;;;;;5029808;28;20300;-88
2021/09/19 10:32:39;;;;;;;4.68;4.32;;;22.10;59.10;;;;;;5032796;28;20189;-87
2021/09/19 10:35:25;;;;;;;4.80;4.40;;;22.20;57.50;;;;;;5046044;28;20192;-87
2021/09/19 10:37:54;;;;;;;4.97;4.57;;;22.10;57.80;;;;;;5045320;28;20272;-87
2021/09/19 10:40:40;;;;;;;5.07;4.57;;;21.90;58.20;;;;;;5044878;28;20212;-88
2021/09/19 10:43:19;;;;;;;5.50;5.00;;;21.90;58.80;;;;;;5045235;28;20200;-87
2021/09/19 10:45:50;;;;;;;6.00;5.50;;;22.20;58.10;;;;;;5044650;28;20197;-88
2021/09/19 10:48:27;;;;;;;4.90;4.40;;;22.50;56.30;;;;;;5044226;28;20272;-88
2021/09/19 10:51:08;;;;;;;5.85;5.20;;;22.30;56.90;;;;;;5046219;28;20189;-87
2021/09/19 10:53:49;;;;;;;6.50;6.00;;;22.30;57.10;;;;;;5044527;28;20211;-88
2021/09/19 10:56:15;;;;;;;5.53;5.13;;;22.20;55.80;;;;;;5027600;28;20189;-87
2021/09/19 10:58:46;;;;;;;6.05;5.45;;;22.00;57.50;;;;;;5027449;28;20222;-88
2021/09/19 11:01:12;;;;;;;5.35;4.95;;;22.30;57.10;;;;;;5040602;28;20193;-90
2021/09/19 11:03:41;;;;;;;5.38;4.97;;;22.70;55.40;;;;;;5045094;28;20200;-88
2021/09/19 11:06:30;;;;;;;5.25;4.95;;;22.90;54.70;;;;;;5044108;28;20209;-89
2021/09/19 11:08:57;;;;;;;5.30;4.90;;;23.00;54.60;;;;;;5045063;28;20232;-89
2021/09/19 11:11:25;;;;;;;5.13;4.72;;;23.30;54.90;;;;;;5045234;28;20173;-87
2021/09/19 11:13:56;;;;;;;4.88;4.43;;;23.50;54.70;;;;;;5043266;28;20241;-88
2021/09/19 11:16:22;;;;;;;5.00;4.60;;;24.00;53.10;;;;;;5039879;28;20189;-90
2021/09/19 11:18:53;;;;;;;4.88;4.47;;;24.00;52.50;;;;;;5025294;28;20287;-87
2021/09/19 11:21:19;;;;;;;5.40;4.90;;;24.10;51.20;;;;;;5025293;28;20216;-85
2021/09/19 11:23:53;;;;;;;5.60;5.18;;;24.10;51.50;;;;;;5041482;28;20520;-86
2021/09/19 11:26:21;;;;;;;5.45;5.05;;;24.00;51.60;;;;;;5040163;28;20282;-89
2021/09/19 11:28:48;;;;;;;6.28;5.68;;;24.20;51.70;;;;;;5040221;28;20247;-89
2021/09/19 11:31:15;;;;;;;6.15;5.75;;;24.10;50.50;;;;;;5020349;28;20208;-89
2021/09/19 11:33:41;;;;;;;7.07;5.57;;;23.30;52.90;;;;;;5039613;28;20181;-89
2021/09/19 11:36:13;;;;;;;5.90;5.40;;;23.60;52.60;;;;;;5038050;28;20200;-88
2021/09/19 11:38:42;;;;;;;5.45;5.05;;;23.30;53.40;;;;;;5040165;28;20299;-89
2021/09/19 11:41:08;;;;;;;6.32;5.85;;;23.50;52.90;;;;;;5041403;28;20192;-88
2021/09/19 11:43:39;;;;;;;5.40;5.00;;;23.70;52.30;;;;;;5042310;28;20207;-89
2021/09/19 11:46:11;;;;;;;5.40;5.00;;;23.90;51.50;;;;;;5039618;28;20196;-89
2021/09/19 11:48:39;;;;;;;5.35;4.95;;;24.40;50.30;;;;;;5024649;28;20284;-89
2021/09/19 11:51:06;;;;;;;5.03;4.63;;;24.10;51.40;;;;;;5037870;28;20188;-88
2021/09/19 11:53:31;;;;;;;5.20;4.70;;;24.00;52.70;;;;;;5038242;28;20188;-88
2021/09/19 11:55:57;;;;;;;5.70;4.57;;;23.60;52.60;;;;;;5032501;28;20197;-89
2021/09/19 11:58:24;;;;;;;5.32;4.93;;;23.40;53.30;;;;;;5039856;28;20224;-88
2021/09/19 12:00:58;;;;;;;5.75;5.25;;;23.20;54.90;;;;;;5036485;28;20282;-89
2021/09/19 12:03:25;;;;;;;4.85;4.45;;;23.10;53.80;;;;;;5039937;28;20203;-89
2021/09/19 12:05:53;;;;;;;5.78;5.28;;;23.10;55.10;;;;;;5042391;28;20240;-89
2021/09/19 12:08:20;;;;;;;4.47;4.07;;;23.30;53.60;;;;;;5024220;28;20221;-90
2021/09/19 12:10:50;;;;;;;4.80;4.38;;;23.50;54.60;;;;;;5041945;28;20668;-89
2021/09/19 12:13:27;;;;;;;5.45;5.05;;;23.80;51.00;;;;;;5042420;28;20191;-89
2021/09/19 12:16:10;;;;;;;5.35;4.85;;;23.90;51.40;;;;;;5022780;28;20273;-88
2021/09/19 12:18:42;;;;;;;6.03;5.47;;;24.00;49.90;;;;;;5035361;28;20296;-90
2021/09/19 12:21:19;;;;;;;5.38;4.88;;;24.20;50.00;;;;;;5034607;28;20196;-89
2021/09/19 12:23:53;;;;;;;5.57;5.18;;;24.20;49.30;;;;;;5007377;28;20192;-90
2021/09/19 12:26:25;;;;;;;5.53;5.13;;;24.20;49.80;;;;;;5046092;28;20183;-89
2021/09/19 12:28:58;;;;;;;5.65;5.25;;;24.00;51.50;;;;;;5032078;28;20215;-91
2021/09/19 12:31:38;;;;;;;6.05;5.65;;;23.60;50.80;;;;;;5054221;28;20249;-91
2021/09/19 12:34:09;;;;;;;6.15;5.75;;;23.50;53.10;;;;;;5050384;28;20205;-91
2021/09/19 12:36:46;;;;;;;6.05;5.65;;;23.80;52.40;;;;;;5034186;28;20184;-92
2021/09/19 12:39:18;;;;;;;6.47;5.97;;;24.40;48.50;;;;;;5048627;28;20215;-92
2021/09/19 12:41:47;;;;;;;6.57;6.07;;;24.30;49.40;;;;;;5038971;28;20230;-92
2021/09/19 12:44:17;;;;;;;6.45;5.63;;;23.60;53.40;;;;;;5040793;28;20256;-90
2021/09/19 12:46:54;;;;;;;6.60;6.00;;;23.20;52.90;;;;;;5039794;28;20193;-89
2021/09/19 12:49:32;;;;;;;6.68;6.15;;;23.30;51.70;;;;;;5022525;28;20703;-88